createdAt,value
2019-06-10T00:00:13.449Z,91.86
2019-06-10T00:01:08.463Z,90.62
2019-06-10T00:02:07.258Z,91.49
2019-06-10T00:03:07.238Z,91.77
2019-06-10T00:04:08.864Z,91.58
2019-06-10T00:05:07.279Z,91.96
2019-06-10T00:06:07.149Z,91.77
2019-06-10T00:07:07.488Z,92.44
2019-06-10T00:08:07.423Z,91.77
2019-06-10T00:09:08.158Z,91.77
2019-06-10T00:10:07.724Z,91.77
2019-06-10T00:11:07.962Z,92.77
2019-06-10T00:12:09.461Z,93.54
2019-06-10T00:13:08.639Z,94.07
2019-06-10T00:14:10.569Z,95.07
2019-06-10T00:15:10.698Z,94.79
2019-06-10T00:16:08.628Z,94.40
2019-06-10T00:17:10.930Z,94.74
2019-06-10T00:18:30.842Z,95.46
2019-06-10T00:19:11.929Z,95.56
2019-06-10T00:20:11.136Z,94.89
2019-06-10T00:21:11.165Z,94.26
2019-06-10T00:22:11.649Z,94.12
2019-06-10T00:23:12.307Z,94.45
2019-06-10T00:24:11.789Z,94.17
2019-06-10T00:25:12.007Z,93.30
2019-06-10T00:26:12.385Z,94.35
2019-06-10T00:27:11.756Z,94.35
2019-06-10T00:28:12.096Z,94.74
2019-06-10T00:29:11.913Z,95.22
2019-06-10T00:30:12.257Z,95.22
2019-06-10T00:31:11.499Z,95.98
2019-06-10T00:32:13.039Z,96.32
2019-06-10T00:33:12.694Z,95.51
2019-06-10T00:34:12.399Z,94.84
2019-06-10T00:35:12.299Z,95.60
2019-06-10T00:36:13.568Z,95.79
2019-06-10T00:37:14.722Z,95.41
2019-06-10T00:38:14.380Z,95.60
2019-06-10T00:39:13.478Z,95.79
2019-06-10T00:40:14.184Z,95.98
2019-06-10T00:41:14.028Z,96.66
2019-06-10T00:42:15.078Z,96.51
2019-06-10T00:43:13.589Z,96.89
2019-06-10T00:44:12.977Z,96.80
2019-06-10T00:45:17.672Z,96.89
2019-06-10T00:46:13.382Z,96.75
2019-06-10T00:47:15.065Z,97.61
2019-06-10T00:48:23.942Z,96.08
2019-06-10T00:49:14.690Z,96.42
2019-06-10T00:50:14.821Z,97.66
2019-06-10T00:51:13.895Z,98.05
2019-06-10T00:52:14.209Z,97.56
2019-06-10T00:53:14.644Z,98.33
2019-06-10T00:54:15.720Z,98.91
2019-06-10T00:55:14.498Z,99.10
2019-06-10T00:56:14.647Z,97.76
2019-06-10T00:57:14.796Z,98.14
2019-06-10T00:58:14.948Z,97.85
2019-06-10T00:59:15.482Z,98.33
2019-06-10T01:00:25.381Z,98.19
2019-06-10T01:01:15.400Z,96.56
2019-06-10T01:02:15.548Z,97.04
2019-06-10T01:03:15.702Z,98.28
2019-06-10T01:04:16.514Z,96.47
2019-06-10T01:05:16.002Z,96.22
2019-06-10T01:06:16.152Z,96.42
2019-06-10T01:07:16.301Z,95.84
2019-06-10T01:08:16.453Z,94.69
2019-06-10T01:09:16.605Z,95.51
2019-06-10T01:10:16.755Z,95.84
2019-06-10T01:11:21.254Z,94.93
2019-06-10T01:12:17.055Z,93.59
2019-06-10T01:13:17.206Z,94.35
2019-06-10T01:14:17.390Z,94.64
2019-06-10T01:15:17.542Z,93.30
2019-06-10T01:16:17.692Z,91.86
2019-06-10T01:17:17.842Z,91.58
2019-06-10T01:18:31.977Z,90.72
2019-06-10T01:19:18.143Z,90.33
2019-06-10T01:20:18.293Z,88.42
2019-06-10T01:21:18.443Z,87.61
2019-06-10T01:22:21.116Z,86.84
2019-06-10T01:23:18.744Z,85.79
2019-06-10T01:24:18.896Z,85.02
2019-06-10T01:25:19.048Z,85.12
2019-06-10T01:26:21.577Z,85.88
2019-06-10T01:27:21.171Z,86.98
2019-06-10T01:28:21.828Z,87.65
2019-06-10T01:29:21.021Z,88.42
2019-06-10T01:30:24.562Z,88.80
2019-06-10T01:31:23.899Z,87.55
2019-06-10T01:32:21.659Z,85.60
2019-06-10T01:33:21.276Z,85.02
2019-06-10T01:34:21.748Z,84.16
2019-06-10T01:35:21.105Z,83.59
2019-06-10T01:36:21.199Z,83.49
2019-06-10T01:37:21.784Z,84.83
2019-06-10T01:38:21.272Z,85.98
2019-06-10T01:39:22.685Z,87.23
2019-06-10T01:40:21.303Z,85.83
2019-06-10T01:41:21.610Z,84.88
2019-06-10T01:42:21.744Z,86.02
2019-06-10T01:43:21.758Z,85.93
2019-06-10T01:44:22.281Z,86.98
2019-06-10T01:45:22.060Z,88.51
2019-06-10T01:46:22.207Z,89.28
2019-06-10T01:47:22.356Z,90.14
2019-06-10T01:48:22.514Z,87.08
2019-06-10T01:49:22.656Z,86.50
2019-06-10T01:50:22.805Z,86.98
2019-06-10T01:51:22.957Z,88.61
2019-06-10T01:52:23.107Z,86.50
2019-06-10T01:53:23.254Z,87.17
2019-06-10T01:54:23.407Z,86.88
2019-06-10T01:55:23.558Z,86.21
2019-06-10T01:56:23.707Z,86.21
2019-06-10T01:57:23.863Z,86.41
2019-06-10T01:58:24.008Z,84.58
2019-06-10T01:59:24.175Z,83.44
2019-06-10T02:00:26.072Z,80.18
2019-06-10T02:01:24.461Z,80.24
2019-06-10T02:02:24.615Z,79.57
2019-06-10T02:03:24.763Z,79.66
2019-06-10T02:04:24.916Z,80.37
2019-06-10T02:05:25.065Z,81.57
2019-06-10T02:06:25.885Z,81.62
2019-06-10T02:07:25.360Z,81.38
2019-06-10T02:08:25.514Z,80.94
2019-06-10T02:09:25.691Z,80.47
2019-06-10T02:10:25.814Z,80.85
2019-06-10T02:11:25.966Z,79.22
2019-06-10T02:12:26.118Z,76.69
2019-06-10T02:13:26.265Z,75.35
2019-06-10T02:14:26.418Z,76.02
2019-06-10T02:15:26.573Z,75.07
2019-06-10T02:16:26.718Z,76.50
2019-06-10T02:17:26.868Z,76.89
2019-06-10T02:18:27.019Z,76.89
2019-06-10T02:19:27.167Z,76.89
2019-06-10T02:20:27.318Z,76.40
2019-06-10T02:21:27.468Z,76.98
2019-06-10T02:22:27.620Z,75.54
2019-06-10T02:23:27.770Z,76.50
2019-06-10T02:24:27.920Z,77.08
2019-06-10T02:25:30.182Z,78.13
2019-06-10T02:26:28.219Z,79.13
2019-06-10T02:27:28.372Z,80.37
2019-06-10T02:28:28.522Z,81.13
2019-06-10T02:29:30.634Z,80.94
2019-06-10T02:30:44.527Z,80.81
2019-06-10T02:31:36.561Z,81.90
2019-06-10T02:32:36.905Z,81.04
2019-06-10T02:33:32.435Z,80.85
2019-06-10T02:34:33.060Z,85.16
2019-06-10T02:35:40.087Z,85.93
2019-06-10T02:36:35.345Z,85.06
2019-06-10T02:37:32.625Z,84.49
2019-06-10T02:38:37.931Z,85.25
2019-06-10T02:39:37.539Z,85.64
2019-06-10T02:40:33.100Z,86.41
2019-06-10T02:41:35.358Z,86.31
2019-06-10T02:42:34.827Z,86.60
2019-06-10T02:43:33.302Z,84.97
2019-06-10T02:44:34.354Z,85.25
2019-06-10T02:45:36.953Z,83.30
2019-06-10T02:46:35.736Z,81.57
2019-06-10T02:47:37.086Z,79.47
2019-06-10T02:48:34.837Z,78.13
2019-06-10T02:49:51.491Z,79.57
2019-06-10T02:50:35.787Z,77.55
2019-06-10T02:51:35.434Z,76.21
2019-06-10T02:52:37.183Z,75.35
2019-06-10T02:53:36.191Z,74.11
2019-06-10T02:54:35.822Z,74.20
2019-06-10T02:55:35.136Z,76.31
2019-06-10T02:56:36.297Z,75.35
2019-06-10T02:57:38.868Z,74.30
2019-06-10T02:58:38.334Z,75.07
2019-06-10T02:59:36.417Z,76.12
2019-06-10T03:00:39.785Z,76.40
2019-06-10T03:01:37.860Z,77.26
2019-06-10T03:02:36.402Z,78.13
2019-06-10T03:03:42.527Z,78.51
2019-06-10T03:04:37.586Z,81.77
2019-06-10T03:05:40.644Z,81.77
2019-06-10T03:06:39.381Z,81.38
2019-06-10T03:07:35.573Z,80.33
2019-06-10T03:08:36.123Z,80.76
2019-06-10T03:09:35.763Z,81.23
2019-06-10T03:10:37.079Z,79.37
2019-06-10T03:11:37.361Z,78.13
2019-06-10T03:12:35.149Z,77.26
2019-06-10T03:13:35.302Z,76.89
2019-06-10T03:14:35.450Z,76.31
2019-06-10T03:15:35.639Z,76.69
2019-06-10T03:16:35.758Z,75.83
2019-06-10T03:17:35.932Z,75.35
2019-06-10T03:18:36.051Z,77.94
2019-06-10T03:19:46.999Z,79.18
2019-06-10T03:20:36.353Z,78.51
2019-06-10T03:21:36.503Z,78.51
2019-06-10T03:22:36.651Z,76.98
2019-06-10T03:23:36.802Z,76.69
2019-06-10T03:24:36.952Z,74.11
2019-06-10T03:25:37.101Z,73.05
2019-06-10T03:26:37.251Z,72.96
2019-06-10T03:27:37.401Z,73.44
2019-06-10T03:28:37.551Z,72.29
2019-06-10T03:29:37.701Z,72.16
2019-06-10T03:30:49.790Z,71.20
2019-06-10T03:31:43.124Z,70.24
2019-06-10T03:32:42.535Z,69.86
2019-06-10T03:33:41.859Z,69.09
2019-06-10T03:34:46.012Z,67.76
2019-06-10T03:35:38.605Z,67.76
2019-06-10T03:36:38.755Z,68.71
2019-06-10T03:37:38.910Z,67.66
2019-06-10T03:38:39.107Z,67.18
2019-06-10T03:39:39.208Z,66.51
2019-06-10T03:40:39.355Z,67.37
2019-06-10T03:41:39.506Z,67.85
2019-06-10T03:42:39.666Z,66.32
2019-06-10T03:43:39.807Z,66.70
2019-06-10T03:44:39.958Z,66.80
2019-06-10T03:45:42.434Z,68.13
2019-06-10T03:46:40.264Z,69.51
2019-06-10T03:47:42.492Z,71.71
2019-06-10T03:48:43.080Z,72.77
2019-06-10T03:49:51.725Z,73.34
2019-06-10T03:50:43.000Z,75.35
2019-06-10T03:51:42.796Z,75.54
2019-06-10T03:52:43.156Z,74.20
2019-06-10T03:53:42.696Z,72.19
2019-06-10T03:54:43.299Z,73.15
2019-06-10T03:55:42.359Z,72.29
2019-06-10T03:56:43.056Z,72.29
2019-06-10T03:57:42.438Z,74.49
2019-06-10T03:58:43.023Z,74.40
2019-06-10T03:59:42.294Z,77.59
2019-06-10T04:00:43.019Z,79.51
2019-06-10T04:01:42.823Z,81.04
2019-06-10T04:02:43.172Z,81.23
2019-06-10T04:03:42.975Z,79.80
2019-06-10T04:04:43.066Z,81.04
2019-06-10T04:05:43.119Z,81.33
2019-06-10T04:06:44.305Z,81.71
2019-06-10T04:07:43.430Z,81.23
2019-06-10T04:08:43.576Z,81.23
2019-06-10T04:09:43.725Z,81.81
2019-06-10T04:10:43.877Z,80.76
2019-06-10T04:11:44.028Z,79.60
2019-06-10T04:12:44.176Z,77.88
2019-06-10T04:13:44.328Z,77.59
2019-06-10T04:14:44.484Z,78.84
2019-06-10T04:15:44.631Z,80.18
2019-06-10T04:16:44.782Z,79.99
2019-06-10T04:17:44.932Z,81.33
2019-06-10T04:18:45.083Z,82.81
2019-06-10T04:19:45.232Z,84.39
2019-06-10T04:20:45.384Z,83.72
2019-06-10T04:21:45.535Z,83.44
2019-06-10T04:22:45.687Z,84.53
2019-06-10T04:23:45.837Z,81.62
2019-06-10T04:24:45.989Z,81.81
2019-06-10T04:25:46.139Z,81.23
2019-06-10T04:26:46.293Z,80.37
2019-06-10T04:27:46.440Z,80.56
2019-06-10T04:28:46.598Z,81.18
2019-06-10T04:29:46.741Z,82.38
2019-06-10T04:30:46.895Z,82.19
2019-06-10T04:31:47.044Z,81.81
2019-06-10T04:32:47.195Z,82.00
2019-06-10T04:33:47.344Z,80.85
2019-06-10T04:34:47.554Z,78.84
2019-06-10T04:35:47.675Z,79.60
2019-06-10T04:36:47.825Z,78.74
2019-06-10T04:37:47.977Z,79.32
2019-06-10T04:38:48.127Z,77.97
2019-06-10T04:39:48.277Z,78.17
2019-06-10T04:40:48.428Z,79.99
2019-06-10T04:41:48.580Z,80.89
2019-06-10T04:42:48.732Z,82.42
2019-06-10T04:43:48.883Z,82.96
2019-06-10T04:44:49.034Z,83.53
2019-06-10T04:45:49.186Z,84.78
2019-06-10T04:46:49.336Z,84.30
2019-06-10T04:47:49.489Z,82.96
2019-06-10T04:48:49.639Z,84.39
2019-06-10T04:49:52.122Z,85.25
2019-06-10T04:50:49.942Z,85.16
2019-06-10T04:51:52.223Z,85.64
2019-06-10T04:52:50.242Z,87.84
2019-06-10T04:53:52.505Z,86.79
2019-06-10T04:54:52.627Z,89.51
2019-06-10T04:55:52.246Z,89.13
2019-06-10T04:56:52.838Z,88.46
2019-06-10T04:57:52.131Z,88.08
2019-06-10T04:58:52.530Z,87.02
2019-06-10T04:59:52.967Z,88.41
2019-06-10T05:00:52.358Z,88.41
2019-06-10T05:01:53.054Z,87.55
2019-06-10T05:02:52.264Z,84.67
2019-06-10T05:03:52.664Z,84.53
2019-06-10T05:04:53.218Z,84.63
2019-06-10T05:05:52.704Z,83.29
2019-06-10T05:06:52.748Z,83.19
2019-06-10T05:07:52.507Z,82.32
2019-06-10T05:08:53.808Z,84.25
2019-06-10T05:09:52.808Z,84.25
2019-06-10T05:10:53.029Z,84.82
2019-06-10T05:11:53.112Z,84.72
2019-06-10T05:12:53.261Z,85.82
2019-06-10T05:13:53.532Z,85.25
2019-06-10T05:14:53.561Z,87.07
2019-06-10T05:15:53.711Z,87.26
2019-06-10T05:16:54.485Z,88.74
2019-06-10T05:17:54.016Z,89.08
2019-06-10T05:18:54.940Z,89.99
2019-06-10T05:19:54.321Z,90.08
2019-06-10T05:20:58.396Z,90.18
2019-06-10T05:21:54.625Z,89.32
2019-06-10T05:22:54.772Z,89.51
2019-06-10T05:23:54.926Z,89.22
2019-06-10T05:24:55.076Z,89.22
2019-06-10T05:25:56.285Z,90.95
2019-06-10T05:26:55.381Z,89.70
2019-06-10T05:27:55.533Z,89.22
2019-06-10T05:28:55.687Z,86.92
2019-06-10T05:29:55.836Z,86.68
2019-06-10T05:30:55.986Z,84.77
2019-06-10T05:31:56.138Z,85.15
2019-06-10T05:32:56.289Z,81.51
2019-06-10T05:33:56.443Z,83.81
2019-06-10T05:34:56.592Z,84.48
2019-06-10T05:35:56.754Z,83.61
2019-06-10T05:36:56.898Z,86.68
2019-06-10T05:37:57.050Z,86.68
2019-06-10T05:38:57.201Z,85.72
2019-06-10T05:39:57.357Z,84.95
2019-06-10T05:40:57.503Z,87.55
2019-06-10T05:41:57.655Z,87.84
2019-06-10T05:42:57.806Z,86.11
2019-06-10T05:43:57.956Z,84.38
2019-06-10T05:44:58.108Z,83.14
2019-06-10T05:45:58.261Z,84.48
2019-06-10T05:46:58.412Z,85.15
2019-06-10T05:47:58.566Z,85.82
2019-06-10T05:48:58.719Z,86.30
2019-06-10T05:49:58.870Z,86.01
2019-06-10T05:51:02.882Z,85.82
2019-06-10T05:51:59.174Z,83.52
2019-06-10T05:52:59.326Z,84.86
2019-06-10T05:54:02.036Z,85.53
2019-06-10T05:54:59.631Z,84.38
2019-06-10T05:56:02.043Z,84.38
2019-06-10T05:56:59.932Z,84.58
2019-06-10T05:58:02.434Z,85.96
2019-06-10T05:59:02.251Z,87.40
2019-06-10T06:00:02.991Z,88.17
2019-06-10T06:01:02.785Z,89.03
2019-06-10T06:02:02.277Z,89.51
2019-06-10T06:03:02.780Z,91.66
2019-06-10T06:04:03.159Z,90.42
2019-06-10T06:05:02.578Z,88.40
2019-06-10T06:06:03.202Z,91.38
2019-06-10T06:07:02.389Z,91.81
2019-06-10T06:08:08.201Z,92.19
2019-06-10T06:09:02.231Z,93.54
2019-06-10T06:10:02.490Z,93.92
2019-06-10T06:11:03.252Z,94.21
2019-06-10T06:12:02.610Z,94.49
2019-06-10T06:13:03.084Z,93.25
2019-06-10T06:14:02.820Z,95.17
2019-06-10T06:15:02.679Z,93.87
2019-06-10T06:16:03.442Z,94.54
2019-06-10T06:17:02.978Z,95.50
2019-06-10T06:18:09.432Z,95.12
2019-06-10T06:19:03.401Z,96.27
2019-06-10T06:20:03.432Z,96.22
2019-06-10T06:21:20.583Z,96.80
2019-06-10T06:22:03.738Z,97.09
2019-06-10T06:23:03.887Z,96.90
2019-06-10T06:24:04.246Z,97.76
2019-06-10T06:25:04.196Z,96.61
2019-06-10T06:26:04.352Z,98.87
2019-06-10T06:27:04.501Z,98.00
2019-06-10T06:28:04.655Z,97.91
2019-06-10T06:29:04.807Z,96.27
2019-06-10T06:30:11.109Z,96.08
2019-06-10T06:31:05.110Z,96.13
2019-06-10T06:32:05.265Z,95.02
2019-06-10T06:33:05.420Z,95.50
2019-06-10T06:34:05.569Z,96.27
2019-06-10T06:35:05.720Z,97.71
2019-06-10T06:36:05.876Z,98.54
2019-06-10T06:37:06.028Z,98.54
2019-06-10T06:38:06.181Z,98.72
2019-06-10T06:39:06.333Z,98.92
2019-06-10T06:40:06.487Z,99.11
2019-06-10T06:41:06.640Z,98.14
2019-06-10T06:42:06.831Z,99.99
2019-06-10T06:43:06.954Z,99.84
2019-06-10T06:44:07.109Z,99.88
2019-06-10T06:45:07.261Z,99.88
2019-06-10T06:46:07.417Z,99.99
2019-06-10T06:47:07.568Z,99.44
2019-06-10T06:48:07.721Z,98.97
2019-06-10T06:49:07.875Z,99.98
2019-06-10T06:50:08.026Z,99.98
2019-06-10T06:51:08.791Z,99.99
2019-06-10T06:52:08.335Z,99.99
2019-06-10T06:53:21.330Z,99.99
2019-06-10T06:54:08.645Z,99.59
2019-06-10T06:55:08.799Z,99.99
2019-06-10T06:56:08.951Z,99.99
2019-06-10T06:57:09.109Z,99.99
2019-06-10T06:58:09.263Z,99.99
2019-06-10T06:59:09.414Z,99.99
2019-06-10T07:00:33.814Z,99.99
2019-06-10T07:01:10.978Z,99.99
2019-06-10T07:02:12.159Z,99.99
2019-06-10T07:03:12.452Z,99.99
2019-06-10T07:04:10.188Z,99.99
2019-06-10T07:05:12.403Z,99.99
2019-06-10T07:06:13.028Z,99.99
2019-06-10T07:07:13.064Z,99.99
2019-06-10T07:08:12.932Z,99.99
2019-06-10T07:09:13.239Z,99.99
2019-06-10T07:10:12.242Z,99.99
2019-06-10T07:11:13.244Z,99.99
2019-06-10T07:12:13.030Z,99.99
2019-06-10T07:13:12.896Z,99.99
2019-06-10T07:14:13.344Z,99.99
2019-06-10T07:15:12.206Z,99.99
2019-06-10T07:16:13.159Z,99.99
2019-06-10T07:17:12.678Z,99.99
2019-06-10T07:18:13.053Z,99.99
2019-06-10T07:19:13.147Z,99.99
2019-06-10T07:20:12.763Z,99.99
2019-06-10T07:21:13.263Z,99.99
2019-06-10T07:22:16.026Z,99.99
2019-06-10T07:23:13.116Z,99.99
2019-06-10T07:24:13.271Z,99.99
2019-06-10T07:25:13.424Z,99.99
2019-06-10T07:26:13.578Z,99.99
2019-06-10T07:27:13.733Z,99.99
2019-06-10T07:28:13.891Z,99.99
2019-06-10T07:29:14.039Z,99.99
2019-06-10T07:30:15.201Z,99.99
2019-06-10T07:31:23.656Z,99.99
2019-06-10T07:32:14.500Z,99.99
2019-06-10T07:33:14.649Z,99.99
2019-06-10T07:34:14.799Z,99.99
2019-06-10T07:35:14.956Z,99.99
2019-06-10T07:36:15.108Z,99.99
2019-06-10T07:37:15.264Z,99.99
2019-06-10T07:38:15.419Z,99.99
2019-06-10T07:39:15.574Z,99.99
2019-06-10T07:40:15.731Z,99.99
2019-06-10T07:41:15.887Z,99.99
2019-06-10T07:42:16.042Z,99.99
2019-06-10T07:43:16.193Z,99.99
2019-06-10T07:44:16.349Z,99.99
2019-06-10T07:45:16.527Z,99.99
2019-06-10T07:46:16.657Z,99.99
2019-06-10T07:47:16.813Z,99.99
2019-06-10T07:48:16.969Z,99.99
2019-06-10T07:49:17.124Z,99.99
2019-06-10T07:50:17.279Z,99.99
2019-06-10T07:51:17.446Z,99.99
2019-06-10T07:52:19.915Z,99.99
2019-06-10T07:53:17.743Z,99.99
2019-06-10T07:54:17.892Z,99.99
2019-06-10T07:55:18.048Z,99.99
2019-06-10T07:56:18.199Z,99.99
2019-06-10T07:57:18.354Z,99.99
2019-06-10T07:58:18.508Z,99.99
2019-06-10T07:59:18.680Z,99.99
2019-06-10T08:00:18.830Z,99.99
2019-06-10T08:01:18.984Z,99.99
2019-06-10T08:02:19.133Z,99.99
2019-06-10T08:03:19.286Z,99.99
2019-06-10T08:04:19.440Z,99.99
2019-06-10T08:05:19.595Z,99.99
2019-06-10T08:06:19.749Z,99.99
2019-06-10T08:07:22.396Z,99.99
2019-06-10T08:08:20.060Z,99.99
2019-06-10T08:09:22.628Z,99.99
2019-06-10T08:10:20.369Z,99.99
2019-06-10T08:11:22.668Z,99.99
2019-06-10T08:12:23.106Z,99.99
2019-06-10T08:13:22.656Z,99.99
2019-06-10T08:14:22.279Z,99.99
2019-06-10T08:15:22.983Z,99.99
2019-06-10T08:16:23.656Z,99.99
2019-06-10T08:17:22.453Z,99.99
2019-06-10T08:18:22.555Z,99.99
2019-06-10T08:19:31.656Z,99.99
2019-06-10T08:20:22.303Z,99.99
2019-06-10T08:21:22.885Z,99.99
2019-06-10T08:22:31.146Z,99.99
2019-06-10T08:23:23.649Z,99.99
2019-06-10T08:24:22.553Z,99.99
2019-06-10T08:25:22.985Z,99.99
2019-06-10T08:26:23.264Z,99.99
2019-06-10T08:27:23.013Z,99.99
2019-06-10T08:28:23.313Z,99.99
2019-06-10T08:29:23.554Z,99.99
2019-06-10T08:30:27.465Z,99.99
2019-06-10T08:31:23.640Z,99.99
2019-06-10T08:32:24.502Z,99.99
2019-06-10T08:33:23.953Z,99.99
2019-06-10T08:34:24.106Z,99.99
2019-06-10T08:35:38.503Z,99.99
2019-06-10T08:36:24.419Z,99.99
2019-06-10T08:37:24.583Z,99.99
2019-06-10T08:38:24.729Z,99.99
2019-06-10T08:39:24.891Z,99.99
2019-06-10T08:40:25.043Z,99.99
2019-06-10T08:41:25.199Z,99.99
2019-06-10T08:42:25.356Z,99.99
2019-06-10T08:43:25.517Z,99.99
2019-06-10T08:44:25.668Z,99.99
2019-06-10T08:45:25.823Z,99.99
2019-06-10T08:46:25.983Z,99.99
2019-06-10T08:47:26.135Z,99.99
2019-06-10T08:48:26.289Z,99.99
2019-06-10T08:49:26.445Z,99.99
2019-06-10T08:50:26.595Z,99.99
2019-06-10T08:51:26.751Z,99.99
2019-06-10T08:52:26.921Z,99.99
2019-06-10T08:53:27.079Z,99.99
2019-06-10T08:54:27.239Z,99.99
2019-06-10T08:55:27.391Z,99.99
2019-06-10T08:56:27.550Z,99.99
2019-06-10T08:57:27.703Z,99.99
2019-06-10T08:58:27.857Z,99.79
2019-06-10T08:59:28.017Z,99.50
2019-06-10T09:00:28.174Z,98.73
2019-06-10T09:01:28.326Z,98.25
2019-06-10T09:02:28.481Z,99.99
2019-06-10T09:03:28.643Z,99.98
2019-06-10T09:04:29.550Z,99.79
2019-06-10T09:05:28.956Z,99.99
2019-06-10T09:06:29.111Z,99.45
2019-06-10T09:07:29.268Z,99.36
2019-06-10T09:08:29.422Z,99.45
2019-06-10T09:09:29.579Z,98.68
2019-06-10T09:10:29.743Z,98.25
2019-06-10T09:11:29.897Z,98.25
2019-06-10T09:12:35.822Z,97.57
2019-06-10T09:13:31.261Z,97.77
2019-06-10T09:14:32.590Z,97.91
2019-06-10T09:15:32.507Z,97.24
2019-06-10T09:16:32.434Z,97.28
2019-06-10T09:17:33.804Z,97.38
2019-06-10T09:18:33.440Z,99.74
2019-06-10T09:19:33.218Z,99.99
2019-06-10T09:20:33.127Z,99.60
2019-06-10T09:21:32.991Z,98.58
2019-06-10T09:22:32.717Z,99.99
2019-06-10T09:23:33.116Z,99.99
2019-06-10T09:24:32.767Z,98.15
2019-06-10T09:25:33.353Z,98.15
2019-06-10T09:26:33.695Z,98.63
2019-06-10T09:27:32.857Z,99.99
2019-06-10T09:28:32.952Z,99.99
2019-06-10T09:29:33.003Z,99.99
2019-06-10T09:30:33.397Z,99.84
2019-06-10T09:31:33.254Z,99.99
2019-06-10T09:32:33.205Z,99.26
2019-06-10T09:33:33.395Z,99.11
2019-06-10T09:34:33.518Z,99.99
2019-06-10T09:35:33.678Z,96.36
2019-06-10T09:36:33.833Z,95.59
2019-06-10T09:37:33.990Z,95.40
2019-06-10T09:38:34.667Z,93.46
2019-06-10T09:39:34.310Z,93.56
2019-06-10T09:40:34.463Z,95.73
2019-06-10T09:41:40.121Z,93.56
2019-06-10T09:42:34.777Z,94.72
2019-06-10T09:43:34.933Z,95.10
2019-06-10T09:44:35.093Z,94.96
2019-06-10T09:45:35.248Z,98.93
2019-06-10T09:46:35.406Z,97.42
2019-06-10T09:47:35.564Z,96.17
2019-06-10T09:48:35.722Z,96.17
2019-06-10T09:49:35.888Z,92.20
2019-06-10T09:50:36.035Z,90.21
2019-06-10T09:51:36.191Z,87.79
2019-06-10T09:52:36.347Z,86.92
2019-06-10T09:53:42.794Z,87.02
2019-06-10T09:54:36.663Z,86.92
2019-06-10T09:55:36.823Z,84.75
2019-06-10T09:56:36.980Z,87.27
2019-06-10T09:57:37.137Z,86.69
2019-06-10T09:58:37.296Z,91.82
2019-06-10T09:59:37.454Z,92.68
2019-06-10T10:00:37.612Z,90.46
2019-06-10T10:01:37.769Z,95.00
2019-06-10T10:02:37.926Z,96.98
2019-06-10T10:03:38.082Z,95.73
2019-06-10T10:04:38.274Z,91.80
2019-06-10T10:05:38.397Z,94.81
2019-06-10T10:06:38.553Z,88.60
2019-06-10T10:07:38.711Z,90.30
2019-06-10T10:08:38.868Z,85.02
2019-06-10T10:09:39.027Z,80.90
2019-06-10T10:10:39.187Z,81.43
2019-06-10T10:11:39.361Z,81.13
2019-06-10T10:12:39.502Z,81.23
2019-06-10T10:13:42.461Z,82.88
2019-06-10T10:14:39.823Z,82.41
2019-06-10T10:15:39.980Z,82.47
2019-06-10T10:16:40.846Z,86.15
2019-06-10T10:17:44.489Z,80.59
2019-06-10T10:18:42.520Z,79.97
2019-06-10T10:19:43.304Z,82.29
2019-06-10T10:20:44.600Z,83.64
2019-06-10T10:21:45.650Z,82.72
2019-06-10T10:22:43.786Z,84.11
2019-06-10T10:23:52.494Z,81.40
2019-06-10T10:24:43.865Z,82.86
2019-06-10T10:25:44.877Z,81.54
2019-06-10T10:26:43.341Z,83.92
2019-06-10T10:27:45.563Z,87.60
2019-06-10T10:28:42.794Z,89.34
2019-06-10T10:29:43.680Z,90.64
2019-06-10T10:30:44.970Z,91.56
2019-06-10T10:31:44.991Z,92.20
2019-06-10T10:32:46.876Z,93.65
2019-06-10T10:33:43.107Z,95.06
2019-06-10T10:34:45.040Z,93.46
2019-06-10T10:35:45.766Z,93.46
2019-06-10T10:36:45.362Z,93.21
2019-06-10T10:37:44.571Z,92.73
2019-06-10T10:38:44.738Z,92.10
2019-06-10T10:39:44.682Z,88.57
2019-06-10T10:40:47.087Z,84.79
2019-06-10T10:41:45.193Z,88.81
2019-06-10T10:42:48.605Z,87.84
2019-06-10T10:43:46.825Z,93.02
2019-06-10T10:44:48.108Z,89.86
2019-06-10T10:45:47.468Z,83.00
2019-06-10T10:46:45.607Z,84.93
2019-06-10T10:47:45.051Z,86.15
2019-06-10T10:48:45.206Z,85.90
2019-06-10T10:49:45.365Z,86.33
2019-06-10T10:50:45.720Z,87.44
2019-06-10T10:51:46.923Z,84.72
2019-06-10T10:52:46.773Z,80.52
2019-06-10T10:53:50.570Z,81.77
2019-06-10T10:54:46.754Z,81.73
2019-06-10T10:55:47.196Z,83.81
2019-06-10T10:56:49.162Z,85.22
2019-06-10T10:57:47.263Z,84.97
2019-06-10T10:58:47.641Z,83.03
2019-06-10T10:59:47.799Z,83.56
2019-06-10T11:00:49.769Z,85.06
2019-06-10T11:01:47.584Z,80.52
2019-06-10T11:02:50.623Z,83.62
2019-06-10T11:03:49.555Z,82.98
2019-06-10T11:04:48.011Z,80.55
2019-06-10T11:05:49.912Z,82.05
2019-06-10T11:06:48.043Z,80.34
2019-06-10T11:07:48.203Z,81.51
2019-06-10T11:08:48.419Z,82.15
2019-06-10T11:09:48.952Z,80.30
2019-06-10T11:10:49.907Z,80.69
2019-06-10T11:11:48.948Z,82.48
2019-06-10T11:12:49.088Z,83.45
2019-06-10T11:13:49.388Z,79.57
2019-06-10T11:14:49.354Z,77.14
2019-06-10T11:15:49.486Z,75.23
2019-06-10T11:16:49.642Z,74.93
2019-06-10T11:17:49.803Z,74.16
2019-06-10T11:18:52.000Z,75.51
2019-06-10T11:19:53.727Z,77.26
2019-06-10T11:20:51.394Z,78.71
2019-06-10T11:21:51.507Z,82.78
2019-06-10T11:22:51.590Z,77.39
2019-06-10T11:23:54.240Z,79.63
2019-06-10T11:24:53.593Z,77.14
2019-06-10T11:25:53.698Z,79.76
2019-06-10T11:26:55.172Z,75.04
2019-06-10T11:27:53.062Z,78.34
2019-06-10T11:28:54.375Z,71.67
2019-06-10T11:29:53.563Z,71.12
2019-06-10T11:30:56.358Z,71.16
2019-06-10T11:31:55.054Z,70.99
2019-06-10T11:32:55.662Z,72.45
2019-06-10T11:33:56.993Z,72.16
2019-06-10T11:34:56.512Z,72.16
2019-06-10T11:35:55.132Z,72.09
2019-06-10T11:36:55.050Z,72.19
2019-06-10T11:37:54.055Z,72.55
2019-06-10T11:38:55.573Z,73.61
2019-06-10T11:39:54.963Z,75.20
2019-06-10T11:40:57.728Z,77.37
2019-06-10T11:41:56.034Z,73.72
2019-06-10T11:42:56.514Z,70.77
2019-06-10T11:43:57.761Z,69.60
2019-06-10T11:44:57.409Z,69.60
2019-06-10T11:45:59.850Z,69.60
2019-06-10T11:46:57.515Z,69.86
2019-06-10T11:47:56.635Z,71.12
2019-06-10T11:48:57.247Z,75.45
2019-06-10T11:49:55.419Z,74.33
2019-06-10T11:50:58.431Z,75.30
2019-06-10T11:51:56.494Z,74.71
2019-06-10T11:53:00.243Z,74.13
2019-06-10T11:53:57.180Z,71.84
2019-06-10T11:55:08.869Z,71.77
2019-06-10T11:55:56.438Z,71.25
2019-06-10T11:56:57.795Z,70.61
2019-06-10T11:57:57.705Z,71.67
2019-06-10T11:58:58.606Z,73.13
2019-06-10T11:59:57.787Z,72.41
2019-06-10T12:00:58.789Z,73.61
2019-06-10T12:01:59.862Z,71.83
2019-06-10T12:02:58.712Z,72.28
2019-06-10T12:03:58.887Z,72.77
2019-06-10T12:04:59.326Z,75.71
2019-06-10T12:06:00.758Z,76.29
2019-06-10T12:06:58.953Z,75.03
2019-06-10T12:08:01.244Z,75.55
2019-06-10T12:09:00.865Z,77.45
2019-06-10T12:10:00.786Z,73.77
2019-06-10T12:11:01.812Z,73.77
2019-06-10T12:12:01.922Z,74.70
2019-06-10T12:13:03.054Z,74.90
2019-06-10T12:14:03.884Z,75.57
2019-06-10T12:15:01.257Z,78.58
2019-06-10T12:17:11.219Z,78.91
2019-06-10T12:17:22.293Z,79.78
2019-06-10T12:18:05.978Z,76.68
2019-06-10T12:19:00.852Z,74.58
2019-06-10T12:20:02.989Z,72.99
2019-06-10T12:21:03.565Z,73.77
2019-06-10T12:22:06.365Z,73.77
2019-06-10T12:23:03.791Z,73.03
2019-06-10T12:24:02.394Z,73.80
2019-06-10T12:25:25.006Z,72.09
2019-06-10T12:26:01.642Z,70.93
2019-06-10T12:27:04.473Z,71.32
2019-06-10T12:28:04.498Z,73.26
2019-06-10T12:29:05.300Z,72.25
2019-06-10T12:30:04.841Z,70.70
2019-06-10T12:31:06.425Z,71.38
2019-06-10T12:32:06.984Z,72.02
2019-06-10T12:33:05.355Z,72.61
2019-06-10T12:34:03.260Z,72.02
2019-06-10T12:35:05.206Z,72.45
2019-06-10T12:36:06.689Z,71.96
2019-06-10T12:37:10.882Z,71.73
2019-06-10T12:38:06.132Z,71.96
2019-06-10T12:39:10.225Z,72.87
2019-06-10T12:40:05.657Z,73.26
2019-06-10T12:41:07.893Z,72.39
2019-06-10T12:42:06.083Z,78.25
2019-06-10T12:43:06.780Z,74.17
2019-06-10T12:44:04.640Z,72.42
2019-06-10T12:45:07.377Z,71.80
2019-06-10T12:46:03.909Z,74.52
2019-06-10T12:47:07.619Z,75.53
2019-06-10T12:48:06.607Z,72.13
2019-06-10T12:49:08.511Z,71.22
2019-06-10T12:50:05.533Z,71.19
2019-06-10T12:51:08.116Z,73.36
2019-06-10T12:52:07.439Z,77.14
2019-06-10T12:53:07.188Z,75.78
2019-06-10T12:54:06.455Z,73.22